createdAt,value
2023-09-19T00:00:23.563Z,68.92
2023-09-19T00:03:00.720Z,69.53
2023-09-19T00:05:36.064Z,70.78
2023-09-19T00:08:06.807Z,71.49
2023-09-19T00:10:37.610Z,71.95
2023-09-19T00:13:09.023Z,72.29
2023-09-19T00:15:41.774Z,72.71
2023-09-19T00:18:10.188Z,73.22
2023-09-19T00:20:38.283Z,73.84
2023-09-19T00:23:05.941Z,73.55
2023-09-19T00:25:39.215Z,74.26
2023-09-19T00:28:07.805Z,73.82
2023-09-19T00:30:39.608Z,74.75
2023-09-19T00:33:09.733Z,74.42
2023-09-19T00:35:39.182Z,74.42
2023-09-19T00:38:07.922Z,75.27
2023-09-19T00:40:34.876Z,73.76
2023-09-19T00:43:01.690Z,73.89
2023-09-19T00:45:29.886Z,74.85
2023-09-19T00:47:58.564Z,74.39
2023-09-19T00:50:28.578Z,75.47
2023-09-19T00:52:59.045Z,73.26
2023-09-19T00:55:27.088Z,71.17
2023-09-19T00:57:54.058Z,72.05
2023-09-19T01:00:21.461Z,71.80
2023-09-19T01:02:49.164Z,72.40
2023-09-19T01:05:16.877Z,71.29
2023-09-19T01:07:45.848Z,70.81
2023-09-19T01:10:18.372Z,71.40
2023-09-19T01:12:49.276Z,71.50
2023-09-19T01:15:36.982Z,70.39
2023-09-19T01:18:34.758Z,70.18
2023-09-19T01:21:24.492Z,70.07
2023-09-19T01:24:09.248Z,71.41
2023-09-19T01:26:54.543Z,72.08
2023-09-19T01:29:36.205Z,72.03
2023-09-19T01:32:06.092Z,72.03
2023-09-19T01:35:05.381Z,73.89
2023-09-19T01:37:32.887Z,74.73
2023-09-19T01:40:17.838Z,75.91
2023-09-19T01:43:01.179Z,76.85
2023-09-19T01:45:28.486Z,76.85
2023-09-19T01:47:57.727Z,77.83
2023-09-19T01:51:03.410Z,77.43
2023-09-19T01:53:53.479Z,78.67
2023-09-19T01:56:33.945Z,77.91
2023-09-19T01:59:07.198Z,78.18
2023-09-19T02:01:36.600Z,77.66
2023-09-19T02:04:03.947Z,77.90
2023-09-19T02:06:30.845Z,78.37
2023-09-19T02:08:57.546Z,78.43
2023-09-19T02:11:24.768Z,78.15
2023-09-19T02:13:55.904Z,78.47
2023-09-19T02:16:23.100Z,79.12
2023-09-19T02:18:53.188Z,78.96
2023-09-19T02:21:19.969Z,79.10
2023-09-19T02:23:48.670Z,78.95
2023-09-19T02:26:15.456Z,78.01
2023-09-19T02:28:42.307Z,78.39
2023-09-19T02:31:09.245Z,77.78
2023-09-19T02:33:36.297Z,78.27
2023-09-19T02:36:05.072Z,78.06
2023-09-19T02:38:31.899Z,78.68
2023-09-19T02:40:58.604Z,78.30
2023-09-19T02:43:25.747Z,79.00
2023-09-19T02:45:56.196Z,79.78
2023-09-19T02:48:23.053Z,79.38
2023-09-19T02:50:53.405Z,79.82
2023-09-19T02:53:20.522Z,79.67
2023-09-19T02:55:48.357Z,79.66
2023-09-19T02:58:16.273Z,78.89
2023-09-19T03:00:43.710Z,79.54
2023-09-19T03:03:10.829Z,79.59
2023-09-19T03:05:39.676Z,79.87
2023-09-19T03:08:07.628Z,80.19
2023-09-19T03:10:34.426Z,80.42
2023-09-19T03:13:01.300Z,80.20
2023-09-19T03:15:28.244Z,80.92
2023-09-19T03:17:55.358Z,81.12
2023-09-19T03:20:22.459Z,81.05
2023-09-19T03:22:49.674Z,81.30
2023-09-19T03:25:18.709Z,81.45
2023-09-19T03:27:45.861Z,81.25
2023-09-19T03:30:14.710Z,81.97
2023-09-19T03:32:51.520Z,82.18
2023-09-19T03:35:19.520Z,82.12
2023-09-19T03:37:46.447Z,81.08
2023-09-19T03:40:17.336Z,80.89
2023-09-19T03:42:44.069Z,81.07
2023-09-19T03:45:14.527Z,81.20
2023-09-19T03:47:42.064Z,81.31
2023-09-19T03:50:09.644Z,81.28
2023-09-19T03:52:36.400Z,82.28
2023-09-19T03:55:06.479Z,82.75
2023-09-19T03:57:33.332Z,82.71
2023-09-19T04:00:00.027Z,83.63
2023-09-19T04:02:26.845Z,83.12
2023-09-19T04:04:53.909Z,83.62
2023-09-19T04:07:23.928Z,83.03
2023-09-19T04:09:50.828Z,82.45
2023-09-19T04:12:20.183Z,82.18
2023-09-19T04:14:46.890Z,81.64
2023-09-19T04:17:13.830Z,81.62
2023-09-19T04:19:42.843Z,81.74
2023-09-19T04:22:10.365Z,81.76
2023-09-19T04:24:37.142Z,81.77
2023-09-19T04:27:04.116Z,82.80
2023-09-19T04:29:31.089Z,81.08
2023-09-19T04:32:01.109Z,80.57
2023-09-19T04:34:28.649Z,81.82
2023-09-19T04:36:57.751Z,80.06
2023-09-19T04:39:27.267Z,81.20
2023-09-19T04:41:54.407Z,81.34
2023-09-19T04:44:21.130Z,81.09
2023-09-19T04:46:48.526Z,80.85
2023-09-19T04:49:15.264Z,81.07
2023-09-19T04:51:41.937Z,80.85
2023-09-19T04:54:08.702Z,78.52
2023-09-19T04:56:35.473Z,76.83
2023-09-19T04:59:02.236Z,76.12
2023-09-19T05:01:29.021Z,76.09
2023-09-19T05:03:55.755Z,73.48
2023-09-19T05:06:23.521Z,74.20
2023-09-19T05:08:53.951Z,75.61
2023-09-19T05:11:23.042Z,74.28
2023-09-19T05:13:51.517Z,76.27
2023-09-19T05:16:18.446Z,76.66
2023-09-19T05:18:45.500Z,76.78
2023-09-19T05:21:12.473Z,76.95
2023-09-19T05:23:39.418Z,77.19
2023-09-19T05:26:06.447Z,79.29
2023-09-19T05:28:36.189Z,78.00
2023-09-19T05:31:06.267Z,77.33
2023-09-19T05:33:33.393Z,76.66
2023-09-19T05:36:00.323Z,75.89
2023-09-19T05:38:27.893Z,76.00
2023-09-19T05:40:55.283Z,74.92
2023-09-19T05:43:22.265Z,74.64
2023-09-19T05:45:49.394Z,75.06
2023-09-19T05:48:17.620Z,75.55
2023-09-19T05:50:50.150Z,75.44
2023-09-19T05:53:17.375Z,76.58
2023-09-19T05:55:44.513Z,76.83
2023-09-19T05:58:11.871Z,76.85
2023-09-19T06:00:44.087Z,75.99
2023-09-19T06:03:10.967Z,76.67
2023-09-19T06:05:37.719Z,76.01
2023-09-19T06:08:09.105Z,76.10
2023-09-19T06:10:36.416Z,77.06
2023-09-19T06:13:05.954Z,77.98
2023-09-19T06:15:34.578Z,78.94
2023-09-19T06:18:03.552Z,79.43
2023-09-19T06:20:30.970Z,80.11
2023-09-19T06:22:58.399Z,82.08
2023-09-19T06:25:28.658Z,81.97
2023-09-19T06:27:56.123Z,81.26
2023-09-19T06:30:25.664Z,82.19
2023-09-19T06:32:59.514Z,82.57
2023-09-19T06:35:27.747Z,83.34
2023-09-19T06:37:54.590Z,83.65
2023-09-19T06:40:22.233Z,84.25
2023-09-19T06:42:52.191Z,84.04
2023-09-19T06:45:19.653Z,84.55
2023-09-19T06:47:51.458Z,85.27
2023-09-19T06:50:24.439Z,85.44
2023-09-19T06:52:54.265Z,84.36
2023-09-19T06:55:22.512Z,84.22
2023-09-19T06:57:49.723Z,83.96
2023-09-19T07:00:19.523Z,84.33
2023-09-19T07:02:55.657Z,85.36
2023-09-19T07:05:23.194Z,85.81
2023-09-19T07:07:50.142Z,85.58
2023-09-19T07:10:17.364Z,86.16
2023-09-19T07:12:44.377Z,86.58
2023-09-19T07:15:11.169Z,86.36
2023-09-19T07:17:40.454Z,85.82
2023-09-19T07:20:09.255Z,86.95
2023-09-19T07:22:37.576Z,86.69
2023-09-19T07:25:04.679Z,86.08
2023-09-19T07:27:32.573Z,86.33
2023-09-19T07:30:00.128Z,85.86
2023-09-19T07:32:26.836Z,86.29
2023-09-19T07:34:54.127Z,86.13
2023-09-19T07:37:22.537Z,86.81
2023-09-19T07:39:49.306Z,87.24
2023-09-19T07:42:19.062Z,85.64
2023-09-19T07:44:48.753Z,86.68
2023-09-19T07:47:15.978Z,84.26
2023-09-19T07:49:43.807Z,85.51
2023-09-19T07:52:13.455Z,86.23
2023-09-19T07:54:42.620Z,87.66
2023-09-19T07:57:09.269Z,87.94
2023-09-19T07:59:40.056Z,87.62
2023-09-19T08:02:06.922Z,89.49
2023-09-19T08:04:35.125Z,89.27
2023-09-19T08:07:04.561Z,88.74
2023-09-19T08:09:34.409Z,88.19
2023-09-19T08:12:04.013Z,86.44
2023-09-19T08:14:32.734Z,84.96
2023-09-19T08:17:00.260Z,84.56
2023-09-19T08:19:32.944Z,84.15
2023-09-19T08:21:59.905Z,84.10
2023-09-19T08:24:29.783Z,84.82
2023-09-19T08:26:57.563Z,85.13
2023-09-19T08:29:28.902Z,85.88
2023-09-19T08:31:57.276Z,86.00
2023-09-19T08:34:25.461Z,86.79
2023-09-19T08:36:55.546Z,87.56
2023-09-19T08:39:22.170Z,89.41
2023-09-19T08:41:48.865Z,89.58
2023-09-19T08:44:15.655Z,88.35
2023-09-19T08:46:43.386Z,88.44
2023-09-19T08:49:23.651Z,87.48
2023-09-19T08:52:02.211Z,85.21
2023-09-19T08:54:36.169Z,86.74
2023-09-19T08:57:12.072Z,87.25
2023-09-19T08:59:41.506Z,84.75
2023-09-19T09:02:16.509Z,87.28
2023-09-19T09:04:45.218Z,87.67
2023-09-19T09:07:13.999Z,90.46
2023-09-19T09:09:45.024Z,89.27
2023-09-19T09:12:16.652Z,89.16
2023-09-19T09:14:50.011Z,89.82
2023-09-19T09:17:21.488Z,91.61
2023-09-19T09:19:48.850Z,92.10
2023-09-19T09:22:16.047Z,90.83
2023-09-19T09:24:59.535Z,89.58
2023-09-19T09:27:26.525Z,87.85
2023-09-19T09:29:56.277Z,87.65
2023-09-19T09:32:23.197Z,88.22
2023-09-19T09:34:54.695Z,88.21
2023-09-19T09:37:23.403Z,85.43
2023-09-19T09:39:59.351Z,83.04
2023-09-19T09:42:36.504Z,84.17
2023-09-19T09:45:20.939Z,84.36
2023-09-19T09:47:56.678Z,83.84
2023-09-19T09:50:37.587Z,82.08
2023-09-19T09:53:07.905Z,80.58
2023-09-19T09:56:01.005Z,81.54
2023-09-19T09:58:31.234Z,82.37
2023-09-19T10:00:59.003Z,82.20
2023-09-19T10:03:45.562Z,81.60
2023-09-19T10:06:35.314Z,79.65
2023-09-19T10:09:12.889Z,80.77
2023-09-19T10:11:45.419Z,79.55
2023-09-19T10:14:24.974Z,76.22
2023-09-19T10:17:01.674Z,78.60
2023-09-19T10:19:47.681Z,76.96
2023-09-19T10:22:21.877Z,75.90
2023-09-19T10:25:02.247Z,77.74
2023-09-19T10:27:38.397Z,78.09
2023-09-19T10:30:08.782Z,77.08
2023-09-19T10:32:37.446Z,78.15
2023-09-19T10:35:06.658Z,77.69
2023-09-19T10:37:35.505Z,77.73
2023-09-19T10:40:02.285Z,75.98
2023-09-19T10:42:34.282Z,76.23
2023-09-19T10:45:03.845Z,77.11
2023-09-19T10:47:32.257Z,76.37
2023-09-19T10:49:59.705Z,77.20
2023-09-19T10:52:28.868Z,76.65
2023-09-19T10:54:59.785Z,77.00
2023-09-19T10:57:29.068Z,76.13
2023-09-19T11:00:24.912Z,74.00
2023-09-19T11:03:10.807Z,69.98
2023-09-19T11:05:41.732Z,69.97
2023-09-19T11:08:09.549Z,70.47
2023-09-19T11:10:50.297Z,71.35
2023-09-19T11:13:27.928Z,69.74
2023-09-19T11:16:01.034Z,68.10
2023-09-19T11:18:43.301Z,71.24
2023-09-19T11:21:35.134Z,72.22
2023-09-19T11:24:11.356Z,70.70
2023-09-19T11:26:49.095Z,69.31
2023-09-19T11:29:42.888Z,70.02
2023-09-19T11:32:11.291Z,68.37
2023-09-19T11:34:38.251Z,70.64
2023-09-19T11:37:34.017Z,71.15
2023-09-19T11:40:17.198Z,68.91
2023-09-19T11:42:55.327Z,68.07
2023-09-19T11:45:58.598Z,67.50
2023-09-19T11:48:28.460Z,67.99
2023-09-19T11:50:56.426Z,67.02
2023-09-19T11:53:24.230Z,66.62
2023-09-19T11:55:51.805Z,66.95
2023-09-19T11:58:21.128Z,67.37
2023-09-19T12:00:55.857Z,69.15
2023-09-19T12:03:24.048Z,69.12
2023-09-19T12:05:50.953Z,70.05
2023-09-19T12:08:18.429Z,70.56
2023-09-19T12:10:52.503Z,69.87
2023-09-19T12:13:22.404Z,70.17
2023-09-19T12:15:51.946Z,70.24
2023-09-19T12:18:31.686Z,71.42
2023-09-19T12:21:05.994Z,71.30
2023-09-19T12:23:32.764Z,72.88
2023-09-19T12:26:00.587Z,73.49
2023-09-19T12:28:32.697Z,73.70
2023-09-19T12:31:08.796Z,73.60
2023-09-19T12:33:36.673Z,73.03
2023-09-19T12:36:30.329Z,73.39
2023-09-19T12:39:00.329Z,73.33
2023-09-19T12:41:27.685Z,71.12
2023-09-19T12:43:55.653Z,71.54
2023-09-19T12:46:27.426Z,70.28
2023-09-19T12:49:19.884Z,71.20
2023-09-19T12:51:48.262Z,72.58
2023-09-19T12:54:16.399Z,72.82
2023-09-19T12:56:46.027Z,73.09
2023-09-19T12:59:17.078Z,71.61
2023-09-19T13:01:47.493Z,71.22
2023-09-19T13:04:20.409Z,70.52
2023-09-19T13:06:50.331Z,70.07
2023-09-19T13:09:18.654Z,70.03
2023-09-19T13:11:47.136Z,68.02
2023-09-19T13:14:21.124Z,68.63
2023-09-19T13:17:04.469Z,68.63
2023-09-19T13:19:44.840Z,68.07
2023-09-19T13:22:55.291Z,67.73
2023-09-19T13:25:23.280Z,66.72
2023-09-19T13:27:53.439Z,66.78
2023-09-19T13:30:21.554Z,67.75
2023-09-19T13:32:49.226Z,67.20
2023-09-19T13:35:17.175Z,67.52
2023-09-19T13:37:44.729Z,68.63
2023-09-19T13:40:12.924Z,67.42
2023-09-19T13:42:41.004Z,67.97
2023-09-19T13:45:08.522Z,67.26
2023-09-19T13:47:37.227Z,66.73
2023-09-19T13:50:05.789Z,67.60
2023-09-19T13:52:32.933Z,68.48
2023-09-19T13:55:00.569Z,68.55
2023-09-19T13:57:28.287Z,68.71
2023-09-19T13:59:55.812Z,69.88
2023-09-19T14:02:26.411Z,69.39
2023-09-19T14:04:53.842Z,70.13
2023-09-19T14:07:21.830Z,70.82
2023-09-19T14:09:48.907Z,72.23
2023-09-19T14:12:16.657Z,71.98
2023-09-19T14:14:43.773Z,70.75
2023-09-19T14:17:10.953Z,71.28
2023-09-19T14:19:38.385Z,70.99
2023-09-19T14:22:09.047Z,71.82
2023-09-19T14:24:39.307Z,70.62
2023-09-19T14:27:07.942Z,70.13
2023-09-19T14:29:34.694Z,71.10
2023-09-19T14:32:01.502Z,71.28
2023-09-19T14:34:28.186Z,72.05
2023-09-19T14:36:57.803Z,74.02
2023-09-19T14:39:24.681Z,70.93
2023-09-19T14:41:51.467Z,70.84
2023-09-19T14:44:18.288Z,71.23
2023-09-19T14:46:46.447Z,71.34
2023-09-19T14:49:13.300Z,70.66
2023-09-19T14:51:45.307Z,71.18
2023-09-19T14:54:12.360Z,71.22
2023-09-19T14:56:39.006Z,71.69
2023-09-19T14:59:05.968Z,70.66
2023-09-19T15:01:33.756Z,70.36
2023-09-19T15:04:02.325Z,71.22
2023-09-19T15:06:29.645Z,71.36
2023-09-19T15:08:56.520Z,70.01
2023-09-19T15:11:23.825Z,69.91
2023-09-19T15:13:53.902Z,70.76
2023-09-19T15:16:20.939Z,70.36
2023-09-19T15:18:50.902Z,69.87
2023-09-19T15:21:18.901Z,69.99
2023-09-19T15:23:47.920Z,68.43
2023-09-19T15:26:21.729Z,68.24
2023-09-19T15:28:49.451Z,69.14
2023-09-19T15:31:16.417Z,69.48
2023-09-19T15:33:43.143Z,69.81
2023-09-19T15:36:14.857Z,69.54
2023-09-19T15:39:01.923Z,66.77
2023-09-19T15:41:31.302Z,68.39
2023-09-19T15:44:00.686Z,67.01
2023-09-19T15:46:28.152Z,67.62
2023-09-19T15:48:55.481Z,68.65
2023-09-19T15:51:22.235Z,68.41
2023-09-19T15:53:54.781Z,69.74
2023-09-19T15:56:24.072Z,70.87
2023-09-19T15:58:53.035Z,70.70
2023-09-19T16:01:19.831Z,70.10
2023-09-19T16:03:51.318Z,69.87
2023-09-19T16:06:20.466Z,69.56
2023-09-19T16:08:48.825Z,71.00
2023-09-19T16:11:16.674Z,71.80
2023-09-19T16:13:44.206Z,71.73
2023-09-19T16:16:14.215Z,72.01
2023-09-19T16:18:41.493Z,73.19
2023-09-19T16:21:12.471Z,73.09
2023-09-19T16:23:39.217Z,73.37
2023-09-19T16:26:10.456Z,73.00
2023-09-19T16:28:38.300Z,73.41
2023-09-19T16:31:05.605Z,73.09
2023-09-19T16:33:37.837Z,74.31
2023-09-19T16:36:24.985Z,73.72
2023-09-19T16:38:52.394Z,74.33
2023-09-19T16:41:20.612Z,73.95
2023-09-19T16:43:48.038Z,74.26
2023-09-19T16:46:17.917Z,74.77
2023-09-19T16:48:56.111Z,75.27
2023-09-19T16:51:29.916Z,76.31
2023-09-19T16:53:57.003Z,76.67
2023-09-19T16:56:23.830Z,77.49
2023-09-19T16:58:53.044Z,77.68
2023-09-19T17:01:21.330Z,77.88
2023-09-19T17:03:49.482Z,78.27
2023-09-19T17:06:19.101Z,77.56
2023-09-19T17:08:46.853Z,77.33
2023-09-19T17:11:16.742Z,78.12
2023-09-19T17:13:43.797Z,78.90
2023-09-19T17:16:12.207Z,78.56
2023-09-19T17:18:42.857Z,78.55
2023-09-19T17:21:13.745Z,78.37
2023-09-19T17:23:42.098Z,79.00
2023-09-19T17:26:18.139Z,79.71
2023-09-19T17:28:45.090Z,78.81
2023-09-19T17:31:23.286Z,80.04
2023-09-19T17:33:52.013Z,80.26
2023-09-19T17:36:25.019Z,81.12
2023-09-19T17:38:54.698Z,80.94
2023-09-19T17:41:23.079Z,81.40
2023-09-19T17:44:00.494Z,82.01
2023-09-19T17:46:30.919Z,82.13
2023-09-19T17:48:59.711Z,82.29
2023-09-19T17:51:28.253Z,82.19
2023-09-19T17:53:58.383Z,82.41
2023-09-19T17:56:25.782Z,82.47
2023-09-19T17:59:00.172Z,82.47
2023-09-19T18:01:33.448Z,82.94
2023-09-19T18:04:03.406Z,82.64
2023-09-19T18:06:33.948Z,82.57
2023-09-19T18:09:08.697Z,82.15
2023-09-19T18:11:35.693Z,81.68
2023-09-19T18:14:03.361Z,82.35
2023-09-19T18:16:34.872Z,82.28
2023-09-19T18:19:03.263Z,82.97
2023-09-19T18:21:30.895Z,82.58
2023-09-19T18:24:00.308Z,82.90
2023-09-19T18:26:28.741Z,83.00
2023-09-19T18:28:55.573Z,82.96
2023-09-19T18:31:22.664Z,83.12
2023-09-19T18:33:50.985Z,82.96
2023-09-19T18:36:17.868Z,82.93
2023-09-19T18:38:46.059Z,82.70
2023-09-19T18:41:16.230Z,82.89
2023-09-19T18:43:43.582Z,83.82
2023-09-19T18:46:11.311Z,83.69
2023-09-19T18:48:38.824Z,83.68
2023-09-19T18:51:09.506Z,83.78
2023-09-19T18:53:37.100Z,83.81
2023-09-19T18:56:13.384Z,84.04
2023-09-19T18:58:40.749Z,84.39
2023-09-19T19:01:09.401Z,84.83
2023-09-19T19:03:36.888Z,85.67
2023-09-19T19:06:11.278Z,86.00
2023-09-19T19:08:39.150Z,86.12
2023-09-19T19:11:11.234Z,86.70
2023-09-19T19:13:37.962Z,86.87
2023-09-19T19:16:05.005Z,86.77
2023-09-19T19:18:32.303Z,86.30
2023-09-19T19:21:03.524Z,86.20
2023-09-19T19:23:30.307Z,85.30
2023-09-19T19:26:01.440Z,85.54
2023-09-19T19:28:30.289Z,85.44
2023-09-19T19:30:57.281Z,85.43
2023-09-19T19:33:25.541Z,85.30
2023-09-19T19:35:52.757Z,85.42
2023-09-19T19:38:21.146Z,85.39
2023-09-19T19:40:49.958Z,85.17
2023-09-19T19:43:16.856Z,85.38
2023-09-19T19:45:43.518Z,85.05
2023-09-19T19:48:10.698Z,85.11
2023-09-19T19:50:39.591Z,84.94
2023-09-19T19:53:06.346Z,85.15
2023-09-19T19:55:33.300Z,85.32
2023-09-19T19:58:00.282Z,86.34
2023-09-19T20:00:28.451Z,87.05
2023-09-19T20:02:55.328Z,87.11
2023-09-19T20:05:22.135Z,86.78
2023-09-19T20:07:49.444Z,87.00
2023-09-19T20:10:20.919Z,87.20
2023-09-19T20:12:50.806Z,86.66
2023-09-19T20:15:17.959Z,87.28
2023-09-19T20:17:45.045Z,87.53
2023-09-19T20:20:18.712Z,87.18
2023-09-19T20:22:46.716Z,87.42
2023-09-19T20:25:13.709Z,88.03
2023-09-19T20:27:41.169Z,87.99
2023-09-19T20:30:09.889Z,87.58
2023-09-19T20:32:40.504Z,87.48
2023-09-19T20:35:08.979Z,87.14
2023-09-19T20:37:38.364Z,87.38
2023-09-19T20:40:11.352Z,87.48
2023-09-19T20:42:41.241Z,87.56
2023-09-19T20:45:14.077Z,87.75
2023-09-19T20:47:41.358Z,88.12
2023-09-19T20:50:09.524Z,88.10
2023-09-19T20:52:37.189Z,87.99
2023-09-19T20:55:04.630Z,87.73
2023-09-19T20:57:31.308Z,87.76
2023-09-19T20:59:58.210Z,88.09
2023-09-19T21:02:24.945Z,87.78
2023-09-19T21:04:51.767Z,88.23
2023-09-19T21:07:18.597Z,88.08
2023-09-19T21:09:45.249Z,87.72
2023-09-19T21:12:11.859Z,87.80
2023-09-19T21:14:39.199Z,87.91
2023-09-19T21:17:07.861Z,87.92
2023-09-19T21:19:35.143Z,88.07
2023-09-19T21:22:04.845Z,88.12
2023-09-19T21:24:33.915Z,87.74
2023-09-19T21:27:05.951Z,87.68
2023-09-19T21:29:32.997Z,87.46
2023-09-19T21:31:59.787Z,87.38
2023-09-19T21:34:26.668Z,87.39
2023-09-19T21:36:54.667Z,87.25
2023-09-19T21:39:21.690Z,86.75
2023-09-19T21:41:48.375Z,86.79
2023-09-19T21:44:15.295Z,86.78
2023-09-19T21:46:42.121Z,86.67
2023-09-19T21:49:08.956Z,86.78
2023-09-19T21:51:35.897Z,86.74
2023-09-19T21:54:05.543Z,86.62
2023-09-19T21:56:32.400Z,86.72
2023-09-19T21:58:59.240Z,87.13
2023-09-19T22:01:26.567Z,87.06
2023-09-19T22:03:56.846Z,86.91
2023-09-19T22:06:23.702Z,86.63
2023-09-19T22:08:52.037Z,87.22
2023-09-19T22:11:21.716Z,87.28
2023-09-19T22:13:49.121Z,86.83
2023-09-19T22:16:18.457Z,87.07
2023-09-19T22:18:47.380Z,86.84
2023-09-19T22:21:23.076Z,86.70
2023-09-19T22:23:56.628Z,86.29
2023-09-19T22:26:23.890Z,86.75
2023-09-19T22:28:53.922Z,86.98
2023-09-19T22:31:28.501Z,87.52
2023-09-19T22:33:56.591Z,87.53
2023-09-19T22:36:40.744Z,87.08
2023-09-19T22:39:34.245Z,86.99
2023-09-19T22:42:00.968Z,86.56
2023-09-19T22:44:28.963Z,86.88
2023-09-19T22:46:57.202Z,86.60
2023-09-19T22:49:27.837Z,87.11
2023-09-19T22:51:59.916Z,87.60
2023-09-19T22:54:36.886Z,87.34
2023-09-19T22:57:06.231Z,87.38
2023-09-19T22:59:35.040Z,87.27
2023-09-19T23:02:01.984Z,87.78
2023-09-19T23:04:28.689Z,87.99
2023-09-19T23:07:01.772Z,88.44
2023-09-19T23:09:29.341Z,88.07
2023-09-19T23:12:03.518Z,87.93
2023-09-19T23:14:43.109Z,88.14
2023-09-19T23:17:14.295Z,87.98
2023-09-19T23:19:49.965Z,88.52
2023-09-19T23:22:19.730Z,88.89
2023-09-19T23:24:50.963Z,89.76
2023-09-19T23:27:25.773Z,90.61
2023-09-19T23:29:55.466Z,90.33
2023-09-19T23:32:22.994Z,91.66
2023-09-19T23:34:49.982Z,91.41
2023-09-19T23:37:17.364Z,90.45
2023-09-19T23:39:43.983Z,90.62
2023-09-19T23:42:13.737Z,91.31
2023-09-19T23:44:44.644Z,91.68
2023-09-19T23:47:12.184Z,92.74
2023-09-19T23:49:40.520Z,91.75
2023-09-19T23:52:08.055Z,92.11
2023-09-19T23:54:36.284Z,92.26
2023-09-19T23:57:07.517Z,94.60
2023-09-19T23:59:34.619Z,95.92
